Time;durP1;ratioP1;P1;durP2;ratioP2;P2;SDS_P1;SDS_P2;PMS_P1;PMS_P2;Temp;Humidity;BMP_temperature;BMP_pressure;BME280_temperature;BME280_humidity;BME280_pressure;Samples;Min_cycle;Max_cycle;Signal;HPM_P1;HPM_P2
2022/10/22 00:01:07;;;;;;;7.33;3.40;;;16.80;99.90;;;;;;5053345;28;20286;-72
2022/10/22 00:03:33;;;;;;;11.10;3.77;;;16.80;99.90;;;;;;5053566;28;20174;-72
2022/10/22 00:05:58;;;;;;;9.60;3.70;;;16.80;99.90;;;;;;5053691;28;20199;-72
2022/10/22 00:08:24;;;;;;;7.83;3.60;;;16.70;99.90;;;;;;5053680;28;20161;-72
2022/10/22 00:10:50;;;;;;;11.13;3.70;;;16.70;99.90;;;;;;5053585;28;20261;-72
2022/10/22 00:13:16;;;;;;;8.17;3.20;;;16.70;99.90;;;;;;5053110;28;20227;-72
2022/10/22 00:15:41;;;;;;;6.47;3.20;;;16.70;99.90;;;;;;5053402;28;20211;-72
2022/10/22 00:18:07;;;;;;;4.80;3.17;;;16.60;99.90;;;;;;5053697;28;20177;-73
2022/10/22 00:20:32;;;;;;;12.17;3.83;;;16.60;99.90;;;;;;5053333;28;20213;-72
2022/10/22 00:22:58;;;;;;;12.33;3.67;;;16.60;99.90;;;;;;5053385;28;20177;-72
2022/10/22 00:25:24;;;;;;;7.40;3.30;;;16.60;99.90;;;;;;5053289;28;20200;-72
2022/10/22 00:27:49;;;;;;;8.83;3.10;;;16.60;99.90;;;;;;5053139;28;20170;-72
2022/10/22 00:30:15;;;;;;;5.00;3.50;;;16.60;99.90;;;;;;5053514;28;20176;-72
2022/10/22 00:32:40;;;;;;;8.07;3.10;;;16.60;99.90;;;;;;5053119;28;20231;-72
2022/10/22 00:35:06;;;;;;;8.40;3.50;;;16.50;99.90;;;;;;5053221;28;20180;-71
2022/10/22 00:37:32;;;;;;;9.10;3.33;;;16.50;99.90;;;;;;5035650;28;20232;-72
2022/10/22 00:39:58;;;;;;;6.77;3.30;;;16.50;99.90;;;;;;5053174;28;20217;-71
2022/10/22 00:42:25;;;;;;;7.37;3.33;;;16.50;99.90;;;;;;5052790;28;20209;-71
2022/10/22 00:45:15;;;;;;;11.40;4.03;;;16.40;99.90;;;;;;5052299;28;20255;-72
2022/10/22 00:48:09;;;;;;;11.60;4.00;;;16.40;99.90;;;;;;5053356;28;20195;-71
2022/10/22 00:50:49;;;;;;;6.50;3.30;;;16.40;99.90;;;;;;5053409;28;20263;-73
2022/10/22 00:53:20;;;;;;;8.53;3.30;;;16.30;99.90;;;;;;5053092;28;20176;-73
2022/10/22 00:55:50;;;;;;;7.67;3.27;;;16.30;99.90;;;;;;5052711;28;20170;-72
2022/10/22 00:58:17;;;;;;;8.83;3.50;;;16.30;99.90;;;;;;5053122;28;20311;-72
2022/10/22 01:00:43;;;;;;;8.90;3.30;;;16.20;99.90;;;;;;5052686;28;20685;-72
2022/10/22 01:03:09;;;;;;;5.63;3.33;;;16.30;99.90;;;;;;5052947;28;20184;-72
2022/10/22 01:05:56;;;;;;;10.27;3.80;;;16.20;99.90;;;;;;5053126;28;20689;-72
2022/10/22 01:08:25;;;;;;;7.53;3.47;;;16.20;99.90;;;;;;5052823;28;20621;-72
2022/10/22 01:11:15;;;;;;;7.70;3.50;;;16.30;99.90;;;;;;5052605;28;20177;-71
2022/10/22 01:13:51;;;;;;;9.07;3.57;;;16.20;99.90;;;;;;5053012;28;20250;-72
2022/10/22 01:16:24;;;;;;;11.47;3.87;;;16.20;99.90;;;;;;5034912;28;20535;-72
2022/10/22 01:19:22;;;;;;;6.53;3.27;;;16.10;99.90;;;;;;5052962;28;20165;-72
2022/10/22 01:21:57;;;;;;;10.73;3.53;;;16.10;99.90;;;;;;5052546;28;20213;-72
2022/10/22 01:24:48;;;;;;;8.57;3.30;;;16.10;99.90;;;;;;5052377;28;20203;-72
2022/10/22 01:27:39;;;;;;;11.00;3.67;;;16.10;99.90;;;;;;5052966;28;20170;-72
2022/10/22 01:30:07;;;;;;;7.67;2.93;;;16.10;99.90;;;;;;5052842;28;20180;-72
2022/10/22 01:32:39;;;;;;;9.53;3.07;;;16.10;99.90;;;;;;5052522;28;20703;-72
2022/10/22 01:35:08;;;;;;;7.57;3.10;;;16.10;99.90;;;;;;5052553;28;20188;-72
2022/10/22 01:37:51;;;;;;;7.70;3.23;;;16.10;99.90;;;;;;5052549;28;20200;-72
2022/10/22 01:40:18;;;;;;;5.33;2.60;;;16.10;99.90;;;;;;5034428;28;20244;-72
2022/10/22 01:43:00;;;;;;;7.47;3.00;;;16.10;99.90;;;;;;5052468;28;20173;-72
2022/10/22 01:45:29;;;;;;;5.63;2.93;;;16.10;99.90;;;;;;5052567;28;20193;-72
2022/10/22 01:47:57;;;;;;;8.53;2.50;;;16.10;99.90;;;;;;5052602;28;20206;-71
2022/10/22 01:50:58;;;;;;;8.30;2.80;;;16.20;99.90;;;;;;5052596;28;20184;-71
2022/10/22 01:53:49;;;;;;;6.00;2.70;;;16.20;99.90;;;;;;5052168;28;20252;-71
2022/10/22 01:56:47;;;;;;;6.33;2.67;;;16.20;99.90;;;;;;5055089;28;20177;-71
2022/10/22 01:59:24;;;;;;;5.63;2.80;;;16.10;99.90;;;;;;5056070;28;20529;-71
2022/10/22 02:01:55;;;;;;;7.07;3.10;;;16.10;99.90;;;;;;5055774;28;20235;-71
2022/10/22 02:04:36;;;;;;;5.90;2.70;;;16.10;99.90;;;;;;5055904;28;20209;-71
2022/10/22 02:07:06;;;;;;;7.37;2.77;;;16.10;99.90;;;;;;5056083;28;20169;-71
2022/10/22 02:09:34;;;;;;;11.30;3.47;;;16.00;99.90;;;;;;5055473;28;20265;-71
2022/10/22 02:12:02;;;;;;;6.83;3.00;;;16.00;99.90;;;;;;5055799;28;20177;-71
2022/10/22 02:14:30;;;;;;;4.77;2.90;;;16.00;99.90;;;;;;5055735;28;20266;-71
2022/10/22 02:16:57;;;;;;;9.70;3.07;;;16.00;99.90;;;;;;5055849;28;20162;-73
2022/10/22 02:19:33;;;;;;;6.20;2.87;;;16.00;99.90;;;;;;5055815;28;20184;-71
2022/10/22 02:21:58;;;;;;;8.90;2.87;;;16.00;99.90;;;;;;5055314;28;20224;-71
2022/10/22 02:24:24;;;;;;;5.47;2.63;;;16.00;99.90;;;;;;5055370;28;20247;-71
2022/10/22 02:27:18;;;;;;;7.50;2.80;;;15.90;99.90;;;;;;5055817;28;20633;-71
2022/10/22 02:30:10;;;;;;;10.03;2.80;;;15.90;99.90;;;;;;5055754;28;20240;-71
2022/10/22 02:33:03;;;;;;;10.13;2.90;;;15.90;99.90;;;;;;5055321;28;20173;-71
2022/10/22 02:35:30;;;;;;;6.17;2.20;;;15.90;99.90;;;;;;5055318;28;20181;-71
2022/10/22 02:37:58;;;;;;;8.03;2.80;;;15.80;99.90;;;;;;5055024;28;20180;-72
2022/10/22 02:40:24;;;;;;;4.93;2.67;;;15.80;99.90;;;;;;5055240;28;20205;-72
2022/10/22 02:42:51;;;;;;;6.50;2.37;;;15.80;99.90;;;;;;5055119;28;20173;-72
2022/10/22 02:45:19;;;;;;;10.83;2.73;;;15.80;99.90;;;;;;5055143;28;20173;-72
2022/10/22 02:47:45;;;;;;;10.13;2.70;;;15.80;99.90;;;;;;5055105;28;20176;-72
2022/10/22 02:50:10;;;;;;;5.17;2.70;;;15.80;99.90;;;;;;5054987;28;20758;-72
2022/10/22 02:52:37;;;;;;;7.53;2.70;;;15.80;99.90;;;;;;5054823;28;20260;-72
2022/10/22 02:55:03;;;;;;;6.93;2.43;;;15.70;99.90;;;;;;5055053;28;20169;-72
2022/10/22 02:57:29;;;;;;;7.40;2.40;;;15.70;99.90;;;;;;5054861;28;20641;-72
2022/10/22 02:59:55;;;;;;;8.47;2.50;;;15.70;99.90;;;;;;5054768;28;20292;-73
2022/10/22 03:02:20;;;;;;;5.37;2.30;;;15.70;99.90;;;;;;5054555;28;20609;-72
2022/10/22 03:04:46;;;;;;;8.23;2.63;;;15.70;99.90;;;;;;5054632;28;20260;-71
2022/10/22 03:07:12;;;;;;;8.97;2.83;;;15.70;99.90;;;;;;5053708;28;20184;-71
2022/10/22 03:09:37;;;;;;;6.03;2.67;;;15.70;99.90;;;;;;5054790;28;20173;-71
2022/10/22 03:12:03;;;;;;;8.13;2.67;;;15.70;99.90;;;;;;5054640;28;20173;-71
2022/10/22 03:14:29;;;;;;;10.23;2.77;;;15.70;99.90;;;;;;5054435;28;20187;-71
2022/10/22 03:16:55;;;;;;;6.10;2.37;;;15.70;99.90;;;;;;5054423;28;20192;-72
2022/10/22 03:19:20;;;;;;;4.67;2.37;;;15.80;99.90;;;;;;5054585;28;20684;-72
2022/10/22 03:21:55;;;;;;;4.87;2.43;;;15.80;99.90;;;;;;5054030;28;20208;-72
2022/10/22 03:24:25;;;;;;;5.13;2.40;;;15.70;99.90;;;;;;5054500;28;20250;-71
2022/10/22 03:26:51;;;;;;;5.10;2.33;;;15.70;99.90;;;;;;5054455;28;20223;-71
2022/10/22 03:29:20;;;;;;;6.80;2.53;;;15.70;99.90;;;;;;5054334;28;20177;-70
2022/10/22 03:31:46;;;;;;;5.50;2.30;;;15.70;99.90;;;;;;5054105;28;20181;-71
2022/10/22 03:34:13;;;;;;;7.87;3.00;;;15.70;99.90;;;;;;5054279;28;20174;-73
2022/10/22 03:36:40;;;;;;;10.33;2.30;;;15.70;99.90;;;;;;5053919;28;20177;-71
2022/10/22 03:39:06;;;;;;;6.77;2.40;;;15.70;99.90;;;;;;5054054;28;20177;-72
2022/10/22 03:41:32;;;;;;;8.00;2.43;;;15.70;99.90;;;;;;5053729;28;20242;-71
2022/10/22 03:44:00;;;;;;;7.37;2.70;;;15.70;99.90;;;;;;5054117;28;20227;-71
2022/10/22 03:46:26;;;;;;;7.43;2.40;;;15.70;99.90;;;;;;5053653;28;20207;-71
2022/10/22 03:48:52;;;;;;;7.83;2.47;;;15.70;99.90;;;;;;5053518;28;20177;-72
2022/10/22 03:51:17;;;;;;;8.40;2.20;;;15.80;99.90;;;;;;5053918;28;20173;-72
2022/10/22 03:53:43;;;;;;;7.30;2.53;;;15.80;99.90;;;;;;5054037;28;20172;-72
2022/10/22 03:56:09;;;;;;;7.97;2.40;;;15.80;99.90;;;;;;5053983;28;20177;-72
2022/10/22 03:58:36;;;;;;;7.53;2.17;;;15.90;99.90;;;;;;5053821;28;20177;-72
2022/10/22 04:01:10;;;;;;;11.30;2.70;;;15.90;99.90;;;;;;5053102;28;20225;-72
2022/10/22 04:03:36;;;;;;;6.23;2.10;;;15.90;99.90;;;;;;5053416;28;20195;-72
2022/10/22 04:06:04;;;;;;;7.10;2.50;;;15.90;99.90;;;;;;5053340;28;20177;-71
2022/10/22 04:08:30;;;;;;;7.93;2.17;;;15.80;99.90;;;;;;5053314;28;20663;-72
2022/10/22 04:10:55;;;;;;;6.17;2.43;;;15.80;99.90;;;;;;5053492;28;20169;-72
2022/10/22 04:13:21;;;;;;;7.13;2.50;;;15.70;99.90;;;;;;5053134;28;20269;-72
2022/10/22 04:15:47;;;;;;;9.83;2.63;;;15.70;99.90;;;;;;5053591;28;20170;-72
2022/10/22 04:18:12;;;;;;;5.27;2.10;;;15.60;99.90;;;;;;5053200;28;20165;-72
2022/10/22 04:20:39;;;;;;;5.03;2.23;;;15.60;99.90;;;;;;5053395;28;20604;-72
2022/10/22 04:23:05;;;;;;;6.37;2.53;;;15.60;99.90;;;;;;5053076;28;20655;-72
2022/10/22 04:25:31;;;;;;;11.10;2.70;;;15.60;99.90;;;;;;5053235;28;20189;-72
2022/10/22 04:27:57;;;;;;;6.90;2.47;;;15.50;99.90;;;;;;5052961;28;20165;-73
2022/10/22 04:30:22;;;;;;;8.07;2.83;;;15.50;99.90;;;;;;5053263;28;20219;-72
2022/10/22 04:32:48;;;;;;;11.10;2.70;;;15.60;99.90;;;;;;5052597;28;20246;-72
2022/10/22 04:35:13;;;;;;;6.50;2.33;;;15.60;99.90;;;;;;5052897;28;20683;-72
2022/10/22 04:37:39;;;;;;;7.67;2.43;;;15.50;99.90;;;;;;5053343;28;20169;-72
2022/10/22 04:40:05;;;;;;;7.53;2.43;;;15.50;99.90;;;;;;5052909;28;20687;-72
2022/10/22 04:42:31;;;;;;;9.07;2.97;;;15.40;99.90;;;;;;5052771;28;20648;-72
2022/10/22 04:44:56;;;;;;;6.90;2.00;;;15.40;99.90;;;;;;5052863;28;20253;-72
2022/10/22 04:47:22;;;;;;;6.27;2.57;;;15.40;99.90;;;;;;5052450;28;20208;-72
2022/10/22 04:49:48;;;;;;;9.37;2.33;;;15.30;99.90;;;;;;5053066;28;20169;-72
2022/10/22 04:52:13;;;;;;;9.27;2.87;;;15.40;99.90;;;;;;5052898;28;20629;-72
2022/10/22 04:54:39;;;;;;;4.63;2.20;;;15.40;99.90;;;;;;5052995;28;20219;-72
2022/10/22 04:57:04;;;;;;;8.53;2.37;;;15.50;99.90;;;;;;5052370;28;20197;-72
2022/10/22 04:59:30;;;;;;;7.33;2.57;;;15.50;99.90;;;;;;5052625;28;20162;-72
2022/10/22 05:01:56;;;;;;;7.33;1.93;;;15.60;99.90;;;;;;5051994;28;20261;-72
2022/10/22 05:04:21;;;;;;;9.23;2.40;;;15.60;99.90;;;;;;5052868;28;20215;-72
2022/10/22 05:06:48;;;;;;;7.83;2.40;;;15.70;99.90;;;;;;5052749;28;20192;-72
2022/10/22 05:09:16;;;;;;;8.63;2.27;;;15.70;99.90;;;;;;5052825;28;20219;-72
2022/10/22 05:11:45;;;;;;;6.37;2.10;;;15.70;99.90;;;;;;5052046;28;20201;-72
2022/10/22 05:14:11;;;;;;;7.63;2.10;;;15.80;99.90;;;;;;5052677;28;20169;-72
2022/10/22 05:16:39;;;;;;;4.83;2.40;;;15.80;99.90;;;;;;5052260;28;20180;-72
2022/10/22 05:19:06;;;;;;;9.73;2.37;;;15.90;99.90;;;;;;5052514;28;20165;-72
2022/10/22 05:21:32;;;;;;;5.20;1.93;;;15.90;99.90;;;;;;5052017;28;20265;-73
2022/10/22 05:24:00;;;;;;;5.23;2.27;;;16.00;99.90;;;;;;5052432;28;20169;-71
2022/10/22 05:26:27;;;;;;;6.93;2.07;;;16.10;99.90;;;;;;5052619;28;20513;-72
2022/10/22 05:28:53;;;;;;;5.07;2.03;;;16.10;99.90;;;;;;5052526;28;20184;-72
2022/10/22 05:31:19;;;;;;;10.93;2.23;;;16.10;99.90;;;;;;5054660;28;20165;-71
2022/10/22 05:33:45;;;;;;;8.97;1.80;;;16.10;99.90;;;;;;5056229;28;20169;-71
2022/10/22 05:36:14;;;;;;;12.20;2.40;;;16.10;99.90;;;;;;5056688;28;20173;-73
2022/10/22 05:38:40;;;;;;;7.77;2.50;;;16.10;99.90;;;;;;5056075;28;20652;-72
2022/10/22 05:41:17;;;;;;;7.47;2.20;;;16.00;99.90;;;;;;5056123;28;20205;-71
2022/10/22 05:43:43;;;;;;;8.33;2.07;;;16.00;99.90;;;;;;5056234;28;20165;-71
2022/10/22 05:46:12;;;;;;;5.47;2.40;;;16.00;99.90;;;;;;5055506;28;20658;-73
2022/10/22 05:48:38;;;;;;;7.03;2.30;;;16.00;99.90;;;;;;5055829;28;20248;-72
2022/10/22 05:51:06;;;;;;;5.10;2.00;;;16.00;99.90;;;;;;5055666;28;20679;-72
2022/10/22 05:53:33;;;;;;;12.20;2.50;;;16.00;99.90;;;;;;5056073;28;20178;-72
2022/10/22 05:56:00;;;;;;;7.90;2.23;;;16.10;99.90;;;;;;5056074;28;20254;-72
2022/10/22 05:58:26;;;;;;;12.07;2.20;;;16.20;99.90;;;;;;5055549;28;20169;-72
2022/10/22 06:00:51;;;;;;;5.83;2.37;;;16.20;99.90;;;;;;5054658;28;20232;-72
2022/10/22 06:03:17;;;;;;;8.13;2.47;;;16.20;99.90;;;;;;5055971;28;20212;-72
2022/10/22 06:05:42;;;;;;;5.97;2.20;;;16.10;99.90;;;;;;5055519;28;20691;-72
2022/10/22 06:08:13;;;;;;;7.03;2.37;;;16.00;99.90;;;;;;5055446;28;20559;-71
2022/10/22 06:10:41;;;;;;;5.53;2.30;;;16.10;99.90;;;;;;5055837;28;20177;-72
2022/10/22 06:13:07;;;;;;;10.33;2.43;;;16.20;99.90;;;;;;5055539;28;20201;-72
2022/10/22 06:15:32;;;;;;;7.57;2.10;;;16.10;99.90;;;;;;5054953;28;20204;-72
2022/10/22 06:17:58;;;;;;;7.73;2.43;;;16.10;99.90;;;;;;5055194;28;20249;-72
2022/10/22 06:20:23;;;;;;;5.80;2.43;;;16.10;99.90;;;;;;5055529;28;20560;-72
2022/10/22 06:22:49;;;;;;;5.50;2.37;;;16.00;99.90;;;;;;5055194;28;20652;-72
2022/10/22 06:25:15;;;;;;;8.40;2.60;;;16.00;99.90;;;;;;5055147;28;20204;-72
2022/10/22 06:27:41;;;;;;;8.33;2.20;;;16.00;99.90;;;;;;5055179;28;20210;-72
2022/10/22 06:30:07;;;;;;;8.40;2.30;;;16.10;99.90;;;;;;5054605;28;20165;-72
2022/10/22 06:32:32;;;;;;;9.50;2.50;;;16.10;99.90;;;;;;5055336;28;20170;-71
2022/10/22 06:34:58;;;;;;;6.57;2.00;;;16.10;99.90;;;;;;5055068;28;20530;-72
2022/10/22 06:37:24;;;;;;;6.37;2.60;;;16.10;99.90;;;;;;5054996;28;20165;-72
2022/10/22 06:39:49;;;;;;;5.07;2.13;;;16.10;99.90;;;;;;5054504;28;20220;-72
2022/10/22 06:42:15;;;;;;;9.67;2.40;;;16.10;99.90;;;;;;5053329;28;20196;-71
2022/10/22 06:44:40;;;;;;;7.40;2.60;;;16.10;99.90;;;;;;5036800;28;20161;-73
2022/10/22 06:47:06;;;;;;;9.93;2.30;;;16.10;99.90;;;;;;5054670;28;20197;-72
2022/10/22 06:49:31;;;;;;;8.70;2.50;;;16.10;99.90;;;;;;5054881;28;20173;-72
2022/10/22 06:51:57;;;;;;;8.47;2.70;;;16.20;99.90;;;;;;5054539;28;20185;-72
2022/10/22 06:54:22;;;;;;;6.33;2.37;;;16.30;99.90;;;;;;5054541;28;20200;-71
2022/10/22 06:56:48;;;;;;;6.97;2.30;;;16.90;99.90;;;;;;5054651;28;20173;-72
2022/10/22 06:59:14;;;;;;;8.70;2.10;;;17.10;99.90;;;;;;5053892;28;20177;-74
2022/10/22 07:01:39;;;;;;;8.43;2.40;;;17.30;99.90;;;;;;5053803;28;20237;-70
2022/10/22 07:04:05;;;;;;;7.77;2.40;;;17.20;99.90;;;;;;5054491;28;20322;-72
2022/10/22 07:06:31;;;;;;;5.87;2.37;;;17.10;99.90;;;;;;5054062;28;20170;-71
2022/10/22 07:08:58;;;;;;;6.60;2.33;;;17.10;99.90;;;;;;5054347;28;20173;-72
2022/10/22 07:11:29;;;;;;;3.83;1.83;;;17.30;99.90;;;;;;5053507;28;20549;-72
2022/10/22 07:13:57;;;;;;;9.17;2.20;;;17.30;99.90;;;;;;5054114;28;20169;-72
2022/10/22 07:16:23;;;;;;;7.17;2.20;;;17.20;99.90;;;;;;5054957;28;20227;-72
2022/10/22 07:18:49;;;;;;;8.47;2.23;;;17.30;99.90;;;;;;5054049;28;20632;-71
2022/10/22 07:21:16;;;;;;;5.00;1.90;;;17.20;99.90;;;;;;5053887;28;20232;-71
2022/10/22 07:23:43;;;;;;;6.17;2.10;;;17.30;99.90;;;;;;5053821;28;20174;-71
2022/10/22 07:26:12;;;;;;;7.17;2.13;;;17.70;99.90;;;;;;5054279;28;20702;-71
2022/10/22 07:28:39;;;;;;;7.40;2.20;;;18.00;99.90;;;;;;5054219;28;20169;-72
2022/10/22 07:31:07;;;;;;;5.32;1.95;;;18.20;99.90;;;;;;5053877;28;20169;-73
2022/10/22 07:33:33;;;;;;;6.93;2.17;;;18.20;99.90;;;;;;5053619;28;20252;-74
2022/10/22 07:36:00;;;;;;;8.13;2.20;;;18.10;99.90;;;;;;5053990;28;20619;-72
2022/10/22 07:38:27;;;;;;;13.02;2.50;;;18.20;99.90;;;;;;5053732;28;20175;-72
2022/10/22 07:40:53;;;;;;;5.45;2.05;;;18.10;99.90;;;;;;5052730;28;20312;-72
2022/10/22 07:43:19;;;;;;;10.07;2.70;;;18.10;99.90;;;;;;5053259;28;20250;-72
2022/10/22 07:45:48;;;;;;;7.13;2.38;;;18.00;99.90;;;;;;5053770;28;20307;-73
2022/10/22 07:48:14;;;;;;;3.88;1.75;;;18.20;99.90;;;;;;5053565;28;20168;-71
2022/10/22 07:50:40;;;;;;;6.55;2.10;;;18.40;99.90;;;;;;5053423;28;20193;-72
2022/10/22 07:53:05;;;;;;;8.13;1.95;;;18.40;99.90;;;;;;5053206;28;20195;-71
2022/10/22 07:55:32;;;;;;;7.50;2.15;;;18.30;99.90;;;;;;5053057;28;20575;-72
2022/10/22 07:57:57;;;;;;;6.80;2.25;;;18.50;99.90;;;;;;5052551;28;20208;-72
2022/10/22 08:00:23;;;;;;;6.40;2.13;;;18.40;99.90;;;;;;5053247;28;20232;-72
2022/10/22 08:02:48;;;;;;;7.00;1.95;;;18.20;99.90;;;;;;5053104;28;20242;-71
2022/10/22 08:05:15;;;;;;;9.60;2.45;;;18.30;99.90;;;;;;5052881;28;20177;-71
2022/10/22 08:07:41;;;;;;;4.40;2.10;;;18.40;99.90;;;;;;5052718;28;20209;-71
2022/10/22 08:10:07;;;;;;;4.15;2.10;;;18.60;99.90;;;;;;5053015;28;20188;-71
2022/10/22 08:12:33;;;;;;;6.05;2.10;;;19.00;99.90;;;;;;5052283;28;20651;-71
2022/10/22 08:14:59;;;;;;;5.85;2.50;;;19.30;99.90;;;;;;5053512;28;20177;-73
2022/10/22 08:17:25;;;;;;;11.73;2.20;;;19.20;99.90;;;;;;5053000;28;20177;-71
2022/10/22 08:19:51;;;;;;;8.18;2.03;;;19.10;99.90;;;;;;5052126;28;20285;-71
2022/10/22 08:22:16;;;;;;;6.28;2.00;;;18.90;99.90;;;;;;5052247;28;20222;-71
2022/10/22 08:24:42;;;;;;;4.35;1.70;;;18.70;99.90;;;;;;5052478;28;20204;-72
2022/10/22 08:27:08;;;;;;;7.18;1.85;;;18.80;99.90;;;;;;5053373;28;20241;-71
2022/10/22 08:29:33;;;;;;;6.22;2.22;;;18.40;99.90;;;;;;5052478;28;20203;-70
2022/10/22 08:32:01;;;;;;;7.32;2.10;;;18.30;99.90;;;;;;5052468;28;20626;-71
2022/10/22 08:34:27;;;;;;;8.25;2.03;;;18.20;99.90;;;;;;5052619;28;20205;-71
2022/10/22 08:36:53;;;;;;;6.40;2.42;;;18.00;99.90;;;;;;5052972;28;20165;-72
2022/10/22 08:39:19;;;;;;;7.95;2.20;;;18.00;99.90;;;;;;5052078;28;20180;-71
2022/10/22 08:42:10;;;;;;;4.90;2.13;;;18.10;99.90;;;;;;5051921;28;20283;-70
2022/10/22 08:44:39;;;;;;;6.50;2.28;;;18.10;99.90;;;;;;5052505;28;20169;-73
2022/10/22 08:47:16;;;;;;;8.35;2.35;;;18.10;99.90;;;;;;5052404;28;20170;-71
2022/10/22 08:49:42;;;;;;;8.50;2.40;;;18.10;99.90;;;;;;5052589;28;20183;-70
2022/10/22 08:52:15;;;;;;;4.95;2.30;;;18.30;99.90;;;;;;5051960;28;20181;-71
2022/10/22 08:54:52;;;;;;;8.10;2.47;;;18.50;99.90;;;;;;5052161;28;20268;-71
2022/10/22 08:57:21;;;;;;;5.85;2.13;;;18.70;99.90;;;;;;5053053;28;20184;-71
2022/10/22 09:00:12;;;;;;;5.68;1.90;;;18.90;99.90;;;;;;5051991;28;20165;-73
2022/10/22 09:03:02;;;;;;;9.32;2.10;;;19.50;99.90;;;;;;5052355;28;20253;-71
2022/10/22 09:05:40;;;;;;;6.18;2.42;;;20.20;99.90;;;;;;5053918;28;20528;-72
2022/10/22 09:08:11;;;;;;;5.65;2.28;;;20.90;99.90;;;;;;5055670;28;20176;-71
2022/10/22 09:10:42;;;;;;;8.40;2.67;;;21.70;99.90;;;;;;5056467;28;20276;-72
2022/10/22 09:13:12;;;;;;;11.75;2.60;;;22.30;99.90;;;;;;5056514;28;20169;-72
2022/10/22 09:15:38;;;;;;;8.27;2.20;;;22.20;99.90;;;;;;5056245;28;20173;-73
2022/10/22 09:18:25;;;;;;;5.22;2.17;;;21.50;99.90;;;;;;5056464;28;20176;-73
2022/10/22 09:21:05;;;;;;;7.90;2.30;;;21.50;99.90;;;;;;5056192;28;20208;-71
2022/10/22 09:24:08;;;;;;;11.45;2.80;;;21.10;99.90;;;;;;5054723;28;20217;-74
2022/10/22 09:26:37;;;;;;;5.13;1.95;;;20.30;99.90;;;;;;5056225;28;20226;-73
2022/10/22 09:29:04;;;;;;;4.97;2.05;;;19.90;99.90;;;;;;5055975;28;20646;-73
2022/10/22 09:31:31;;;;;;;4.40;2.33;;;19.80;99.90;;;;;;5055742;28;20256;-73
2022/10/22 09:33:58;;;;;;;7.65;2.58;;;19.90;99.90;;;;;;5056078;28;20174;-71
2022/10/22 09:36:27;;;;;;;4.68;2.17;;;20.10;99.90;;;;;;5055383;28;20189;-72
2022/10/22 09:38:52;;;;;;;9.15;2.50;;;20.50;99.90;;;;;;5055077;28;20184;-72
2022/10/22 09:41:22;;;;;;;6.85;2.40;;;20.60;99.90;;;;;;5054835;28;20209;-71
2022/10/22 09:43:48;;;;;;;7.20;2.58;;;20.70;99.90;;;;;;5055587;28;20184;-71
2022/10/22 09:46:20;;;;;;;4.32;1.88;;;20.60;99.90;;;;;;5055724;28;20342;-71
2022/10/22 09:48:58;;;;;;;5.25;1.98;;;20.50;99.90;;;;;;5056133;28;20187;-72
2022/10/22 09:51:45;;;;;;;5.90;2.17;;;20.10;99.90;;;;;;5055104;28;20188;-72
2022/10/22 09:54:19;;;;;;;7.13;2.20;;;20.00;99.90;;;;;;5055618;28;20187;-72
2022/10/22 09:56:56;;;;;;;7.00;2.08;;;19.80;99.90;;;;;;5055387;28;20215;-71
2022/10/22 09:59:35;;;;;;;6.78;2.22;;;19.60;99.90;;;;;;5055279;28;20177;-72
2022/10/22 10:02:18;;;;;;;6.78;2.70;;;19.80;99.90;;;;;;5055284;28;20243;-71
2022/10/22 10:04:52;;;;;;;5.78;2.35;;;20.20;99.90;;;;;;5055305;28;20208;-70
2022/10/22 10:07:20;;;;;;;6.38;2.20;;;20.40;99.90;;;;;;5055463;28;20172;-72
2022/10/22 10:09:46;;;;;;;6.00;2.33;;;20.60;99.90;;;;;;5054860;28;20181;-71
2022/10/22 10:12:18;;;;;;;8.05;2.40;;;20.60;99.90;;;;;;5054481;28;20173;-71
2022/10/22 10:14:56;;;;;;;6.63;2.17;;;20.40;99.90;;;;;;5055599;28;20260;-72
2022/10/22 10:17:47;;;;;;;7.47;2.15;;;20.50;99.90;;;;;;5054730;28;20173;-72
2022/10/22 10:20:41;;;;;;;5.30;2.20;;;21.00;99.90;;;;;;5054409;28;20239;-72
2022/10/22 10:23:25;;;;;;;7.70;2.20;;;21.90;99.90;;;;;;5053796;28;20645;-72
2022/10/22 10:26:08;;;;;;;7.97;2.90;;;22.00;99.90;;;;;;5053950;28;20277;-71
2022/10/22 10:29:07;;;;;;;7.18;2.42;;;22.10;99.90;;;;;;5053582;28;20173;-71
2022/10/22 10:31:59;;;;;;;5.57;2.38;;;22.20;99.90;;;;;;5054608;28;20173;-71
2022/10/22 10:34:55;;;;;;;8.20;2.55;;;22.30;99.90;;;;;;5054100;28;20201;-73
2022/10/22 10:37:25;;;;;;;8.13;2.47;;;21.40;99.90;;;;;;5055450;28;20177;-73
2022/10/22 10:40:06;;;;;;;6.88;2.25;;;21.30;99.90;;;;;;5054299;28;20170;-72
2022/10/22 10:42:52;;;;;;;8.00;2.42;;;21.20;99.90;;;;;;5054198;28;20211;-72
2022/10/22 10:45:34;;;;;;;8.48;2.38;;;21.80;99.90;;;;;;5054267;28;20178;-71
2022/10/22 10:48:39;;;;;;;5.30;2.00;;;22.70;99.90;;;;;;5054862;28;20161;-73
2022/10/22 10:51:19;;;;;;;7.38;2.30;;;22.60;99.90;;;;;;4972626;28;20172;-72
2022/10/22 10:53:59;;;;;;;5.78;2.30;;;22.40;99.90;;;;;;4973569;28;20652;-72
2022/10/22 10:56:44;;;;;;;4.82;2.35;;;22.30;99.90;;;;;;4973058;28;20187;-72
2022/10/22 10:59:51;;;;;;;6.97;2.38;;;22.30;99.90;;;;;;4973549;28;20187;-71
2022/10/22 11:02:32;;;;;;;6.63;2.30;;;22.10;99.90;;;;;;4934601;29;20240;-73
2022/10/22 11:05:15;;;;;;;3.58;1.70;;;22.10;99.90;;;;;;4934399;29;20196;-71
2022/10/22 11:07:48;;;;;;;6.47;2.22;;;22.20;99.90;;;;;;4934492;29;20283;-74
2022/10/22 11:10:52;;;;;;;7.60;2.78;;;21.80;99.90;;;;;;4934333;29;20196;-71
2022/10/22 11:13:27;;;;;;;7.82;2.13;;;21.60;99.90;;;;;;4933986;29;20201;-72
2022/10/22 11:16:38;;;;;;;5.85;2.17;;;21.60;99.90;;;;;;4934938;29;20711;-72
2022/10/22 11:19:44;;;;;;;7.07;2.60;;;21.30;99.90;;;;;;4924023;29;20189;-72
2022/10/22 11:22:42;;;;;;;6.22;2.53;;;21.10;99.90;;;;;;4933651;29;20597;-71
2022/10/22 11:25:11;;;;;;;6.07;2.50;;;20.80;99.90;;;;;;4955086;28;20273;-71
2022/10/22 11:27:44;;;;;;;7.15;2.33;;;20.90;99.90;;;;;;4971963;28;20176;-71
2022/10/22 11:30:19;;;;;;;5.35;2.20;;;20.70;99.90;;;;;;4972848;28;20267;-71
2022/10/22 11:32:53;;;;;;;7.30;2.30;;;20.50;99.90;;;;;;4972657;28;20175;-72
2022/10/22 11:35:23;;;;;;;8.25;2.15;;;20.40;99.90;;;;;;4980555;28;20163;-72
2022/10/22 11:37:53;;;;;;;6.10;2.30;;;20.60;99.90;;;;;;5053902;28;20299;-71
2022/10/22 11:40:28;;;;;;;7.13;2.38;;;20.70;99.90;;;;;;5053430;28;20193;-71
2022/10/22 11:43:03;;;;;;;5.55;2.00;;;21.10;99.90;;;;;;5053253;28;20173;-71
2022/10/22 11:45:34;;;;;;;7.88;2.03;;;21.10;99.90;;;;;;5052911;28;20165;-70
2022/10/22 11:48:08;;;;;;;9.55;2.53;;;21.40;99.90;;;;;;5053184;28;20664;-73
2022/10/22 11:50:40;;;;;;;3.13;1.90;;;22.10;99.90;;;;;;5052528;28;20188;-72
2022/10/22 11:53:12;;;;;;;7.75;2.35;;;22.00;99.90;;;;;;5052470;28;20177;-72
2022/10/22 11:55:50;;;;;;;7.20;2.38;;;22.40;99.90;;;;;;5052798;28;20173;-72
2022/10/22 11:58:24;;;;;;;4.72;2.15;;;22.10;99.90;;;;;;5052693;28;20226;-71
2022/10/22 12:00:50;;;;;;;5.03;1.98;;;21.70;99.90;;;;;;5052524;28;20260;-71
2022/10/22 12:03:31;;;;;;;5.00;2.10;;;21.50;99.90;;;;;;5053034;28;20197;-72
2022/10/22 12:06:12;;;;;;;6.80;2.08;;;21.10;99.90;;;;;;5052569;28;20637;-71
2022/10/22 12:08:45;;;;;;;3.55;1.50;;;21.10;99.90;;;;;;5052779;28;20231;-70
2022/10/22 12:11:13;;;;;;;6.07;2.00;;;21.10;99.90;;;;;;5052120;28;20203;-69
2022/10/22 12:13:57;;;;;;;4.65;2.13;;;21.30;99.90;;;;;;5052819;28;20195;-71
2022/10/22 12:16:43;;;;;;;5.22;1.95;;;21.40;99.90;;;;;;5052635;28;20655;-72
2022/10/22 12:19:22;;;;;;;6.80;2.08;;;21.10;99.90;;;;;;5052353;28;20177;-70
2022/10/22 12:22:04;;;;;;;6.97;2.72;;;21.00;99.90;;;;;;5052059;28;20248;-72
2022/10/22 12:24:34;;;;;;;4.70;1.70;;;21.20;99.90;;;;;;5052744;28;20185;-72
2022/10/22 12:26:59;;;;;;;6.57;2.13;;;21.10;99.90;;;;;;5052749;28;20173;-72
2022/10/22 12:29:26;;;;;;;4.65;2.03;;;21.40;99.90;;;;;;5051981;28;20250;-71
2022/10/22 12:31:53;;;;;;;4.30;1.73;;;21.30;99.90;;;;;;5052255;28;20181;-71
2022/10/22 12:34:22;;;;;;;5.97;1.95;;;21.50;99.90;;;;;;5051884;28;20475;-73
2022/10/22 12:36:51;;;;;;;4.45;2.25;;;21.40;99.90;;;;;;5051957;28;20181;-72
2022/10/22 12:39:20;;;;;;;4.43;2.17;;;21.40;99.90;;;;;;5052235;28;20227;-72
2022/10/22 12:41:46;;;;;;;4.28;1.70;;;21.20;99.90;;;;;;5051728;28;20216;-73
2022/10/22 12:44:14;;;;;;;6.75;1.80;;;21.10;99.90;;;;;;5051753;28;20485;-71
2022/10/22 12:46:42;;;;;;;5.03;1.65;;;21.10;99.90;;;;;;5051748;28;20181;-71
2022/10/22 12:49:19;;;;;;;8.85;2.08;;;20.60;99.90;;;;;;5051950;28;20176;-71
2022/10/22 12:51:46;;;;;;;3.90;1.42;;;20.80;99.90;;;;;;5052016;28;20651;-71
2022/10/22 12:54:32;;;;;;;4.55;1.60;;;20.90;99.90;;;;;;5052385;28;20176;-72
2022/10/22 12:57:13;;;;;;;3.83;1.70;;;20.80;99.90;;;;;;5052451;28;20177;-72
2022/10/22 12:59:42;;;;;;;5.10;1.90;;;21.00;99.90;;;;;;5051619;28;20181;-70
2022/10/22 13:02:20;;;;;;;4.18;1.60;;;20.80;99.90;;;;;;5052251;28;20223;-71
2022/10/22 13:05:26;;;;;;;6.28;1.67;;;20.80;99.90;;;;;;5051488;28;20183;-72
2022/10/22 13:08:15;;;;;;;7.13;2.15;;;21.00;99.90;;;;;;5051643;28;20259;-71